createdAt,value
2023-04-14T00:00:26.028Z,9.40
2023-04-14T00:01:28.008Z,9.40
2023-04-14T00:02:31.428Z,9.40
2023-04-14T00:03:33.703Z,9.40
2023-04-14T00:04:37.469Z,9.40
2023-04-14T00:05:39.682Z,9.30
2023-04-14T00:06:42.594Z,9.50
2023-04-14T00:07:44.955Z,9.30
2023-04-14T00:08:47.885Z,9.30
2023-04-14T00:09:49.802Z,9.20
2023-04-14T00:10:52.752Z,9.20
2023-04-14T00:11:54.697Z,9.30
2023-04-14T00:12:57.976Z,9.20
2023-04-14T00:14:02.948Z,9.30
2023-04-14T00:15:07.001Z,9.30
2023-04-14T00:16:09.878Z,9.30
2023-04-14T00:17:13.081Z,9.30
2023-04-14T00:18:15.282Z,9.30
2023-04-14T00:19:18.221Z,9.30
2023-04-14T00:20:20.238Z,9.20
2023-04-14T00:21:23.190Z,9.10
2023-04-14T00:22:25.190Z,9.10
2023-04-14T00:23:28.118Z,9.10
2023-04-14T00:24:30.211Z,9.20
2023-04-14T00:25:33.167Z,9.20
2023-04-14T00:26:35.075Z,9.20
2023-04-14T00:27:37.991Z,9.20
2023-04-14T00:28:39.926Z,9.10
2023-04-14T00:29:44.205Z,9.20
2023-04-14T00:30:46.157Z,9.20
2023-04-14T00:31:49.157Z,9.10
2023-04-14T00:32:51.506Z,9.10
2023-04-14T00:33:54.482Z,9.10
2023-04-14T00:34:57.029Z,9.10
2023-04-14T00:36:00.029Z,9.00
2023-04-14T00:37:02.042Z,9.10
2023-04-14T00:38:04.965Z,9.00
2023-04-14T00:39:06.937Z,9.00
2023-04-14T00:40:11.010Z,9.10
2023-04-14T00:41:12.947Z,9.10
2023-04-14T00:42:15.884Z,9.00
2023-04-14T00:43:19.110Z,9.10
2023-04-14T00:44:23.613Z,9.10
2023-04-14T00:45:27.373Z,9.10
2023-04-14T00:46:31.343Z,9.10
2023-04-14T00:47:33.369Z,8.90
2023-04-14T00:48:36.479Z,9.00
2023-04-14T00:49:38.649Z,8.90
2023-04-14T00:50:41.767Z,9.00
2023-04-14T00:51:46.151Z,9.00
2023-04-14T00:52:51.228Z,9.10
2023-04-14T00:53:55.601Z,9.10
2023-04-14T00:54:59.326Z,9.10
2023-04-14T00:56:01.587Z,9.10
2023-04-14T00:57:07.312Z,9.10
2023-04-14T00:58:09.612Z,9.20
2023-04-14T00:59:14.368Z,9.10
2023-04-14T01:00:17.081Z,9.00
2023-04-14T01:01:21.995Z,9.00
2023-04-14T01:02:25.137Z,9.00
2023-04-14T01:03:28.450Z,9.00
2023-04-14T01:04:44.786Z,9.00
2023-04-14T01:05:54.346Z,9.00
2023-04-14T01:06:56.345Z,8.90
2023-04-14T01:07:59.386Z,8.90
2023-04-14T01:09:01.828Z,9.00
2023-04-14T01:10:06.543Z,9.00
2023-04-14T01:11:17.028Z,9.00
2023-04-14T01:12:32.602Z,9.00
2023-04-14T01:13:41.131Z,9.00
2023-04-14T01:14:49.353Z,9.00
2023-04-14T01:15:57.434Z,9.00
2023-04-14T01:17:07.133Z,9.00
2023-04-14T01:18:16.345Z,9.00
2023-04-14T01:19:38.119Z,9.10
2023-04-14T01:20:43.641Z,9.00
2023-04-14T01:21:51.245Z,9.00
2023-04-14T01:22:58.581Z,9.00
2023-04-14T01:24:21.419Z,8.90
2023-04-14T01:25:42.634Z,8.90
2023-04-14T01:26:47.192Z,9.00
2023-04-14T01:28:02.512Z,8.90
2023-04-14T01:29:28.459Z,9.00
2023-04-14T01:30:47.507Z,9.00
2023-04-14T01:31:58.879Z,9.00
2023-04-14T01:33:05.715Z,8.90
2023-04-14T01:34:15.355Z,8.90
2023-04-14T01:35:21.272Z,8.90
2023-04-14T01:36:31.764Z,8.90
2023-04-14T01:37:36.993Z,8.80
2023-04-14T01:38:43.615Z,8.90
2023-04-14T01:39:50.012Z,8.90
2023-04-14T01:40:57.312Z,9.00
2023-04-14T01:41:59.240Z,9.00
2023-04-14T01:43:05.195Z,9.10
2023-04-14T01:44:09.695Z,9.10
2023-04-14T01:45:19.652Z,9.00
2023-04-14T01:46:21.996Z,9.00
2023-04-14T01:47:27.663Z,9.00
2023-04-14T01:48:31.215Z,9.00
2023-04-14T01:49:37.839Z,9.00
2023-04-14T01:50:42.133Z,9.00
2023-04-14T01:51:45.903Z,9.00
2023-04-14T01:52:51.454Z,9.00
2023-04-14T01:53:57.227Z,9.00
2023-04-14T01:55:05.677Z,9.00
2023-04-14T01:56:10.497Z,9.00
2023-04-14T01:57:14.211Z,9.00
2023-04-14T01:58:18.656Z,8.90
2023-04-14T01:59:22.860Z,8.90
2023-04-14T02:00:26.566Z,8.90
2023-04-14T02:01:29.982Z,8.80
2023-04-14T02:02:37.698Z,8.80
2023-04-14T02:03:41.159Z,8.80
2023-04-14T02:04:45.736Z,8.90
2023-04-14T02:05:51.265Z,8.80
2023-04-14T02:06:56.182Z,9.00
2023-04-14T02:08:00.763Z,8.90
2023-04-14T02:09:05.572Z,8.80
2023-04-14T02:10:11.128Z,8.80
2023-04-14T02:11:15.842Z,8.80
2023-04-14T02:12:19.665Z,8.80
2023-04-14T02:13:23.836Z,8.90
2023-04-14T02:14:27.461Z,8.90
2023-04-14T02:15:32.802Z,8.90
2023-04-14T02:16:37.231Z,8.90
2023-04-14T02:17:42.716Z,8.90
2023-04-14T02:18:46.532Z,9.10
2023-04-14T02:19:49.938Z,9.00
2023-04-14T02:20:54.012Z,8.90
2023-04-14T02:21:57.840Z,8.90
2023-04-14T02:23:00.427Z,8.90
2023-04-14T02:24:03.631Z,8.90
2023-04-14T02:25:06.489Z,8.90
2023-04-14T02:26:14.723Z,8.90
2023-04-14T02:27:18.774Z,8.80
2023-04-14T02:28:24.458Z,8.80
2023-04-14T02:29:28.268Z,8.80
2023-04-14T02:30:33.942Z,8.80
2023-04-14T02:31:40.019Z,8.80
2023-04-14T02:32:49.309Z,8.80
2023-04-14T02:33:54.813Z,8.80
2023-04-14T02:35:04.430Z,8.90
2023-04-14T02:36:13.326Z,8.80
2023-04-14T02:37:28.415Z,8.90
2023-04-14T02:38:35.766Z,8.80
2023-04-14T02:39:42.895Z,8.80
2023-04-14T02:40:45.715Z,8.90
2023-04-14T02:41:53.183Z,8.90
2023-04-14T02:43:08.617Z,8.90
2023-04-14T02:44:17.764Z,9.00
2023-04-14T02:45:23.352Z,9.00
2023-04-14T02:46:27.684Z,9.00
2023-04-14T02:47:34.367Z,9.00
2023-04-14T02:48:39.396Z,8.90
2023-04-14T02:49:45.368Z,8.90
2023-04-14T02:50:52.157Z,8.90
2023-04-14T02:51:57.126Z,9.00
2023-04-14T02:53:00.569Z,8.90
2023-04-14T02:54:05.218Z,9.00
2023-04-14T02:55:09.381Z,9.00
2023-04-14T02:56:13.035Z,9.00
2023-04-14T02:57:15.708Z,8.90
2023-04-14T02:58:19.144Z,8.90
2023-04-14T02:59:22.221Z,8.90
2023-04-14T03:00:25.717Z,8.90
2023-04-14T03:01:29.135Z,8.90
2023-04-14T03:02:32.671Z,8.90
2023-04-14T03:03:37.504Z,8.90
2023-04-14T03:04:42.273Z,8.90
2023-04-14T03:05:46.031Z,8.90
2023-04-14T03:06:49.555Z,8.90
2023-04-14T03:07:53.465Z,8.90
2023-04-14T03:08:58.251Z,8.90
2023-04-14T03:10:01.392Z,8.90
2023-04-14T03:11:05.753Z,8.80
2023-04-14T03:12:08.074Z,8.80
2023-04-14T03:13:11.655Z,8.80
2023-04-14T03:14:14.382Z,8.80
2023-04-14T03:15:18.212Z,8.70
2023-04-14T03:16:21.182Z,8.80
2023-04-14T03:17:25.044Z,8.80
2023-04-14T03:18:27.467Z,8.80
2023-04-14T03:19:32.777Z,8.80
2023-04-14T03:20:37.281Z,8.80
2023-04-14T03:21:40.595Z,8.90
2023-04-14T03:22:44.163Z,8.90
2023-04-14T03:23:48.807Z,8.90
2023-04-14T03:24:50.802Z,8.80
2023-04-14T03:25:55.183Z,8.80
2023-04-14T03:27:02.938Z,8.90
2023-04-14T03:28:12.176Z,8.80
2023-04-14T03:29:16.447Z,8.80
2023-04-14T03:30:20.803Z,8.70
2023-04-14T03:31:31.982Z,8.70
2023-04-14T03:32:41.689Z,8.80
2023-04-14T03:33:46.758Z,8.90
2023-04-14T03:34:53.620Z,8.90
2023-04-14T03:35:58.697Z,9.00
2023-04-14T03:37:02.714Z,8.90
2023-04-14T03:38:09.058Z,9.80
2023-04-14T03:39:14.552Z,8.90
2023-04-14T03:40:17.549Z,8.90
2023-04-14T03:41:22.147Z,8.90
2023-04-14T03:42:26.034Z,8.90
2023-04-14T03:43:30.005Z,8.90
2023-04-14T03:44:36.440Z,8.80
2023-04-14T03:45:40.573Z,8.80
2023-04-14T03:46:43.282Z,8.80
2023-04-14T03:47:46.751Z,8.90
2023-04-14T03:48:50.600Z,8.90
2023-04-14T03:49:59.584Z,8.90
2023-04-14T03:51:06.104Z,8.90
2023-04-14T03:52:12.996Z,7.10
2023-04-14T03:53:18.124Z,9.00
2023-04-14T03:54:23.918Z,9.00
2023-04-14T03:55:27.689Z,9.00
2023-04-14T03:56:32.338Z,8.90
2023-04-14T03:57:36.222Z,8.90
2023-04-14T03:58:39.416Z,8.80
2023-04-14T03:59:42.799Z,8.80
2023-04-14T04:00:47.083Z,8.80
2023-04-14T04:01:50.515Z,8.80
2023-04-14T04:02:55.684Z,8.80
2023-04-14T04:04:00.832Z,8.80
2023-04-14T04:05:05.284Z,8.90
2023-04-14T04:06:08.939Z,8.80
2023-04-14T04:07:14.177Z,8.80
2023-04-14T04:08:18.298Z,8.80
2023-04-14T04:09:24.564Z,8.70
2023-04-14T04:10:26.795Z,8.70
2023-04-14T04:11:31.084Z,8.90
2023-04-14T04:12:33.714Z,8.80
2023-04-14T04:13:37.737Z,8.80
2023-04-14T04:14:40.592Z,8.80
2023-04-14T04:15:43.626Z,8.70
2023-04-14T04:16:47.740Z,8.70
2023-04-14T04:17:52.721Z,8.70
2023-04-14T04:18:54.992Z,8.70
2023-04-14T04:19:59.626Z,8.70
2023-04-14T04:21:02.562Z,8.70
2023-04-14T04:22:08.994Z,8.70
2023-04-14T04:23:12.409Z,8.70
2023-04-14T04:24:18.220Z,8.70
2023-04-14T04:25:20.682Z,8.70
2023-04-14T04:26:25.410Z,8.70
2023-04-14T04:27:28.667Z,8.70
2023-04-14T04:28:32.012Z,8.70
2023-04-14T04:29:34.102Z,8.70
2023-04-14T04:30:40.578Z,8.70
2023-04-14T04:31:43.005Z,8.80
2023-04-14T04:32:46.187Z,8.70
2023-04-14T04:33:48.971Z,8.60
2023-04-14T04:34:52.365Z,8.70
2023-04-14T04:35:56.299Z,8.70
2023-04-14T04:37:00.844Z,8.70
2023-04-14T04:38:05.351Z,8.70
2023-04-14T04:39:08.318Z,8.60
2023-04-14T04:40:11.481Z,8.60
2023-04-14T04:41:22.519Z,8.60
2023-04-14T04:42:24.555Z,8.60
2023-04-14T04:43:27.494Z,8.70
2023-04-14T04:44:29.518Z,8.70
2023-04-14T04:45:46.826Z,8.70
2023-04-14T04:46:53.681Z,8.70
2023-04-14T04:47:56.646Z,8.80
2023-04-14T04:48:58.962Z,8.70
2023-04-14T04:50:02.095Z,8.70
2023-04-14T04:51:04.250Z,8.60
2023-04-14T04:52:08.246Z,8.60
2023-04-14T04:53:12.360Z,8.60
2023-04-14T04:54:15.780Z,8.60
2023-04-14T04:55:17.880Z,8.70
2023-04-14T04:56:21.496Z,8.80
2023-04-14T04:57:23.539Z,8.80
2023-04-14T04:58:26.475Z,8.80
2023-04-14T04:59:28.473Z,8.90
2023-04-14T05:00:31.756Z,8.90
2023-04-14T05:01:34.014Z,8.70
2023-04-14T05:02:37.258Z,8.80
2023-04-14T05:03:39.546Z,8.80
2023-04-14T05:04:42.530Z,8.70
2023-04-14T05:05:44.514Z,8.80
2023-04-14T05:06:47.502Z,8.80
2023-04-14T05:07:49.438Z,8.90
2023-04-14T05:08:54.287Z,8.90
2023-04-14T05:09:56.463Z,8.80
2023-04-14T05:10:59.436Z,8.80
2023-04-14T05:12:01.930Z,8.80
2023-04-14T05:13:04.920Z,8.80
2023-04-14T05:14:07.841Z,8.80
2023-04-14T05:15:10.951Z,8.80
2023-04-14T05:16:14.835Z,8.90
2023-04-14T05:17:16.833Z,8.80
2023-04-14T05:18:20.029Z,8.80
2023-04-14T05:19:21.942Z,8.80
2023-04-14T05:20:24.803Z,8.80
2023-04-14T05:21:26.814Z,8.80
2023-04-14T05:22:29.832Z,8.90
2023-04-14T05:23:34.433Z,8.90
2023-04-14T05:24:37.863Z,8.80
2023-04-14T05:25:40.768Z,8.80
2023-04-14T05:27:48.549Z,8.90
2023-04-14T05:28:51.431Z,8.80
2023-04-14T05:29:53.318Z,8.90
2023-04-14T05:30:56.258Z,8.90
2023-04-14T05:31:59.187Z,8.80
2023-04-14T05:33:01.465Z,8.90
2023-04-14T05:34:04.460Z,8.80
2023-04-14T05:35:06.907Z,8.90
2023-04-14T05:36:09.957Z,8.80
2023-04-14T05:37:11.915Z,8.80
2023-04-14T05:38:15.255Z,8.90
2023-04-14T05:39:18.191Z,8.70
2023-04-14T05:40:22.558Z,8.80
2023-04-14T05:41:25.473Z,8.80
2023-04-14T05:42:27.414Z,8.80
2023-04-14T05:43:30.399Z,8.90
2023-04-14T05:44:32.350Z,8.80
2023-04-14T05:45:35.514Z,8.70
2023-04-14T05:46:38.488Z,8.80
2023-04-14T05:47:40.478Z,8.80
2023-04-14T05:48:43.375Z,8.90
2023-04-14T05:49:45.472Z,9.00
2023-04-14T05:50:48.393Z,8.90
2023-04-14T05:51:50.390Z,8.80
2023-04-14T05:52:53.539Z,8.80
2023-04-14T05:53:55.879Z,8.80
2023-04-14T05:54:58.776Z,8.80
2023-04-14T05:56:03.003Z,8.80
2023-04-14T05:57:04.978Z,8.80
2023-04-14T05:58:07.955Z,8.90
2023-04-14T05:59:09.975Z,8.90
2023-04-14T06:00:14.447Z,8.90
2023-04-14T06:01:16.421Z,8.90
2023-04-14T06:02:19.481Z,8.90
2023-04-14T06:03:21.719Z,8.90
2023-04-14T06:04:25.001Z,8.80
2023-04-14T06:05:27.329Z,8.80
2023-04-14T06:06:32.432Z,8.90
2023-04-14T06:07:34.402Z,9.00
2023-04-14T06:08:37.335Z,9.00
2023-04-14T06:09:39.287Z,9.00
2023-04-14T06:10:42.377Z,9.00
2023-04-14T06:11:45.692Z,8.90
2023-04-14T06:12:48.636Z,8.90
2023-04-14T06:13:51.538Z,8.90
2023-04-14T06:14:53.505Z,8.90
2023-04-14T06:15:58.177Z,8.90
2023-04-14T06:17:00.218Z,8.90
2023-04-14T06:18:03.148Z,8.90
2023-04-14T06:19:05.061Z,8.90
2023-04-14T06:20:09.404Z,9.00
2023-04-14T06:21:12.170Z,9.00
2023-04-14T06:22:18.916Z,9.00
2023-04-14T06:23:21.992Z,9.00
2023-04-14T06:24:23.890Z,9.00
2023-04-14T06:25:26.826Z,9.00
2023-04-14T06:26:29.784Z,9.00
2023-04-14T06:27:33.141Z,9.00
2023-04-14T06:28:36.015Z,9.10
2023-04-14T06:29:37.987Z,9.10
2023-04-14T06:30:40.943Z,9.00
2023-04-14T06:31:43.426Z,9.10
2023-04-14T06:32:46.509Z,9.10
2023-04-14T06:33:48.520Z,9.10
2023-04-14T06:34:53.282Z,9.10
2023-04-14T06:35:56.458Z,9.10
2023-04-14T06:36:58.902Z,9.20
2023-04-14T06:38:02.084Z,9.10
2023-04-14T06:39:04.946Z,9.10
2023-04-14T06:40:09.313Z,8.90
2023-04-14T06:41:11.350Z,9.00
2023-04-14T06:42:15.467Z,8.90
2023-04-14T06:43:19.913Z,8.90
2023-04-14T06:44:21.893Z,9.00
2023-04-14T06:45:24.812Z,9.00
2023-04-14T06:46:26.932Z,9.00
2023-04-14T06:47:29.957Z,9.10
2023-04-14T06:48:32.955Z,9.00
2023-04-14T06:49:34.975Z,9.00
2023-04-14T06:50:37.859Z,9.00
2023-04-14T06:51:40.882Z,9.00
2023-04-14T06:52:42.876Z,9.00
2023-04-14T06:53:45.755Z,9.10
2023-04-14T06:54:47.682Z,9.10
2023-04-14T06:55:51.889Z,9.00
2023-04-14T06:56:53.875Z,9.00
2023-04-14T06:57:56.765Z,9.00
2023-04-14T06:59:00.108Z,9.10
2023-04-14T07:00:04.250Z,9.00
2023-04-14T07:01:06.466Z,9.00
2023-04-14T07:02:09.582Z,9.10
2023-04-14T07:03:11.588Z,9.10
2023-04-14T07:04:15.517Z,9.10
2023-04-14T07:05:18.263Z,9.10
2023-04-14T07:06:21.237Z,9.20
2023-04-14T07:07:24.354Z,9.10
2023-04-14T07:08:32.073Z,9.10
2023-04-14T07:09:34.861Z,9.20
2023-04-14T07:10:37.828Z,9.20
2023-04-14T07:11:40.834Z,9.20
2023-04-14T07:12:42.762Z,9.20
2023-04-14T07:13:45.892Z,9.10
2023-04-14T07:14:52.196Z,9.10
2023-04-14T07:15:55.401Z,9.10
2023-04-14T07:16:58.683Z,9.00
2023-04-14T07:18:00.901Z,9.10
2023-04-14T07:19:03.870Z,9.10
2023-04-14T07:20:08.523Z,9.10
2023-04-14T07:21:10.506Z,9.10
2023-04-14T07:22:13.460Z,9.10
2023-04-14T07:23:15.430Z,9.10
2023-04-14T07:24:18.352Z,9.00
2023-04-14T07:25:20.253Z,9.10
2023-04-14T07:26:23.129Z,9.10
2023-04-14T07:27:28.638Z,9.20
2023-04-14T07:28:32.458Z,9.20
2023-04-14T07:29:36.215Z,9.20
2023-04-14T07:30:39.475Z,9.20
2023-04-14T07:31:42.666Z,9.20
2023-04-14T07:32:44.705Z,9.20
2023-04-14T07:33:47.639Z,9.20
2023-04-14T07:34:49.824Z,9.20
2023-04-14T07:36:02.762Z,9.20
2023-04-14T07:37:07.144Z,9.10
2023-04-14T07:38:09.070Z,9.10
2023-04-14T07:39:11.976Z,9.10
2023-04-14T07:40:14.127Z,9.00
2023-04-14T07:41:17.098Z,9.10
2023-04-14T07:42:20.028Z,9.10
2023-04-14T07:43:21.918Z,9.10
2023-04-14T07:44:24.789Z,9.10
2023-04-14T07:45:26.731Z,8.80
2023-04-14T07:46:31.446Z,8.20
2023-04-14T07:47:33.908Z,7.80
2023-04-14T07:48:37.993Z,7.90
2023-04-14T07:49:41.010Z,7.60
2023-04-14T07:50:42.995Z,7.30
2023-04-14T07:51:46.215Z,7.20
2023-04-14T07:52:48.187Z,7.60
2023-04-14T07:53:53.139Z,8.10
2023-04-14T07:54:55.385Z,7.50
2023-04-14T07:55:58.937Z,7.20
2023-04-14T07:57:02.404Z,7.00
2023-04-14T07:58:04.357Z,6.90
2023-04-14T07:59:07.284Z,7.00
2023-04-14T08:00:10.396Z,7.40
2023-04-14T08:01:14.112Z,7.90
2023-04-14T08:02:18.232Z,7.90
2023-04-14T08:03:21.750Z,8.20
2023-04-14T08:04:24.927Z,8.40
2023-04-14T08:05:27.934Z,8.50
2023-04-14T08:06:30.959Z,8.70
2023-04-14T08:07:33.315Z,8.80
2023-04-14T08:08:36.688Z,8.80
2023-04-14T08:09:39.089Z,8.90
2023-04-14T08:10:42.811Z,8.90
2023-04-14T08:11:45.706Z,9.00
2023-04-14T08:12:47.621Z,9.00
2023-04-14T08:13:52.829Z,9.10
2023-04-14T08:14:56.998Z,9.10
2023-04-14T08:15:59.975Z,9.20
2023-04-14T08:17:01.967Z,9.20
2023-04-14T08:18:06.525Z,9.20
2023-04-14T08:19:09.538Z,9.30
2023-04-14T08:20:12.759Z,9.30
2023-04-14T08:21:14.690Z,9.30
2023-04-14T08:22:18.426Z,9.30
2023-04-14T08:23:22.551Z,9.40
2023-04-14T08:24:24.511Z,9.40
2023-04-14T08:25:27.420Z,9.40
2023-04-14T08:26:30.540Z,9.40
2023-04-14T08:27:32.618Z,9.30
2023-04-14T08:28:35.641Z,9.40
2023-04-14T08:29:37.552Z,9.40
2023-04-14T08:30:41.398Z,9.40
2023-04-14T08:31:45.187Z,9.40
2023-04-14T08:32:47.218Z,9.40
2023-04-14T08:33:51.536Z,9.40
2023-04-14T08:35:34.927Z,9.40
2023-04-14T08:36:16.351Z,9.40
2023-04-14T08:37:18.737Z,9.40
2023-04-14T08:38:21.715Z,9.40
2023-04-14T08:39:23.661Z,9.40
2023-04-14T08:40:31.711Z,9.40
2023-04-14T08:41:37.589Z,9.40
2023-04-14T08:42:39.548Z,9.40
2023-04-14T08:43:42.921Z,9.50
2023-04-14T08:44:44.900Z,9.50
2023-04-14T08:45:50.030Z,9.60
2023-04-14T08:46:52.834Z,9.50
2023-04-14T08:47:57.775Z,9.50
2023-04-14T08:49:06.948Z,9.50
2023-04-14T08:50:16.446Z,9.50
2023-04-14T08:51:26.282Z,9.50
2023-04-14T08:52:29.083Z,9.50
2023-04-14T08:53:33.848Z,9.50
2023-04-14T08:54:40.553Z,9.00
2023-04-14T08:55:44.529Z,9.00
2023-04-14T08:56:48.380Z,9.20
2023-04-14T08:57:50.768Z,9.20
2023-04-14T08:58:53.783Z,9.30
2023-04-14T08:59:56.707Z,8.50
2023-04-14T09:01:00.355Z,8.80
2023-04-14T09:02:08.270Z,9.00
2023-04-14T09:03:11.543Z,9.10
2023-04-14T09:04:17.120Z,9.20
2023-04-14T09:05:19.267Z,9.30
2023-04-14T09:06:23.185Z,9.40
2023-04-14T09:07:25.488Z,9.40
2023-04-14T09:08:33.869Z,9.40
2023-04-14T09:09:36.931Z,9.50
2023-04-14T09:10:40.821Z,9.50
2023-04-14T09:11:43.478Z,9.60
2023-04-14T09:12:48.329Z,9.60
2023-04-14T09:13:52.081Z,9.60
2023-04-14T09:14:55.074Z,9.70
2023-04-14T09:15:58.403Z,9.70
2023-04-14T09:17:02.677Z,9.60
2023-04-14T09:18:06.061Z,9.60
2023-04-14T09:19:10.385Z,9.60
2023-04-14T09:20:36.125Z,9.60
2023-04-14T09:21:52.676Z,9.60
2023-04-14T09:22:57.730Z,9.60
2023-04-14T09:24:01.070Z,9.70
2023-04-14T09:25:05.249Z,9.70
2023-04-14T09:26:09.240Z,9.70
2023-04-14T09:27:12.283Z,9.70
2023-04-14T09:28:14.652Z,9.70
2023-04-14T09:29:17.956Z,9.70
2023-04-14T09:30:21.649Z,9.70
2023-04-14T09:31:25.030Z,9.90
2023-04-14T09:32:28.077Z,9.80
2023-04-14T09:33:31.416Z,9.80
2023-04-14T09:34:33.494Z,9.90
2023-04-14T09:35:47.325Z,9.90
2023-04-14T09:37:02.377Z,9.90
2023-04-14T09:38:06.948Z,9.90
2023-04-14T09:39:17.938Z,9.90
2023-04-14T09:40:31.008Z,10.00
2023-04-14T09:41:33.960Z,10.00
2023-04-14T09:42:40.605Z,10.00
2023-04-14T09:43:43.943Z,10.00
2023-04-14T09:44:55.141Z,10.00
2023-04-14T09:45:59.670Z,9.90
2023-04-14T09:47:05.074Z,10.00
2023-04-14T09:48:08.212Z,10.00
2023-04-14T09:49:11.227Z,10.00
2023-04-14T09:50:14.122Z,10.00
2023-04-14T09:51:18.287Z,10.00
2023-04-14T09:52:21.232Z,10.00
2023-04-14T09:53:27.047Z,10.00
2023-04-14T09:54:30.324Z,9.90
2023-04-14T09:55:32.278Z,9.90
2023-04-14T09:56:35.247Z,9.90
2023-04-14T09:57:38.357Z,9.90
2023-04-14T09:58:42.725Z,9.90
2023-04-14T09:59:46.892Z,10.00
2023-04-14T10:00:51.198Z,9.90
2023-04-14T10:01:55.307Z,10.10
2023-04-14T10:03:00.894Z,10.00
2023-04-14T10:04:04.367Z,9.90
2023-04-14T10:05:07.067Z,10.00
2023-04-14T10:06:11.392Z,10.10
2023-04-14T10:07:18.810Z,10.10
2023-04-14T10:08:20.819Z,10.00
2023-04-14T10:09:24.751Z,10.10
2023-04-14T10:10:27.899Z,10.10
2023-04-14T10:11:33.411Z,10.10
2023-04-14T10:12:35.530Z,10.10
2023-04-14T10:13:38.503Z,10.00
2023-04-14T10:14:42.089Z,10.00
2023-04-14T10:15:44.195Z,10.10
2023-04-14T10:16:47.231Z,10.10
2023-04-14T10:17:49.214Z,10.10
2023-04-14T10:18:52.788Z,10.10
2023-04-14T10:19:55.784Z,10.00
2023-04-14T10:20:58.040Z,10.10
2023-04-14T10:22:01.416Z,10.10
2023-04-14T10:23:06.098Z,10.20
2023-04-14T10:24:09.156Z,10.10
2023-04-14T10:25:13.676Z,10.20
2023-04-14T10:26:17.267Z,10.20
2023-04-14T10:27:19.692Z,10.10
2023-04-14T10:28:23.751Z,10.20
2023-04-14T10:29:27.437Z,10.10
2023-04-14T10:30:29.703Z,10.20
2023-04-14T10:31:35.772Z,10.10
2023-04-14T10:32:40.566Z,10.10
2023-04-14T10:33:43.141Z,10.10
2023-04-14T10:34:58.723Z,10.20
2023-04-14T10:36:01.811Z,10.20
2023-04-14T10:37:14.965Z,10.20
2023-04-14T10:38:19.753Z,10.30
2023-04-14T10:39:24.739Z,10.20
2023-04-14T10:40:26.779Z,10.30
2023-04-14T10:41:37.430Z,10.30
2023-04-14T10:42:53.173Z,10.30
2023-04-14T10:43:56.549Z,10.30
2023-04-14T10:45:06.434Z,10.40
2023-04-14T10:46:11.143Z,10.30
2023-04-14T10:47:23.717Z,10.40
2023-04-14T10:48:26.949Z,10.30
2023-04-14T10:49:34.201Z,10.30
2023-04-14T10:50:47.462Z,10.40
2023-04-14T10:51:50.382Z,10.40
2023-04-14T10:52:55.629Z,10.40
2023-04-14T10:54:04.635Z,10.30
2023-04-14T10:55:08.035Z,10.20
2023-04-14T10:56:11.243Z,10.30
2023-04-14T10:57:14.601Z,10.30
2023-04-14T10:58:21.280Z,10.30
2023-04-14T10:59:24.009Z,10.30
2023-04-14T11:00:29.024Z,10.30
2023-04-14T11:01:32.714Z,10.40
2023-04-14T11:02:36.056Z,10.30
2023-04-14T11:03:46.143Z,10.30
2023-04-14T11:05:02.379Z,10.40
2023-04-14T11:06:06.557Z,10.30
2023-04-14T11:07:09.617Z,10.30
2023-04-14T11:08:14.672Z,10.30
2023-04-14T11:09:26.514Z,10.30
2023-04-14T11:10:32.962Z,10.30
2023-04-14T11:11:35.406Z,10.30
2023-04-14T11:12:44.342Z,10.30
2023-04-14T11:14:13.239Z,10.30
2023-04-14T11:15:15.432Z,10.20
2023-04-14T11:16:29.982Z,10.30
2023-04-14T11:17:34.022Z,10.30
2023-04-14T11:18:44.130Z,10.30
2023-04-14T11:19:47.770Z,10.30
2023-04-14T11:20:53.691Z,10.30
2023-04-14T11:21:55.880Z,10.30
2023-04-14T11:22:58.849Z,10.30
2023-04-14T11:24:02.177Z,10.30
2023-04-14T11:25:06.926Z,10.40
2023-04-14T11:26:11.191Z,10.40
2023-04-14T11:27:13.285Z,10.40
2023-04-14T11:28:16.238Z,10.50
2023-04-14T11:29:18.273Z,10.40
2023-04-14T11:30:22.767Z,10.50
2023-04-14T11:31:28.501Z,10.50
2023-04-14T11:32:31.665Z,10.50
2023-04-14T11:33:36.457Z,10.50
2023-04-14T11:34:40.102Z,10.60
2023-04-14T11:35:42.749Z,10.60
2023-04-14T11:36:45.938Z,10.60
2023-04-14T11:37:47.886Z,10.60
2023-04-14T11:38:51.198Z,10.60
2023-04-14T11:39:53.183Z,10.50
2023-04-14T11:40:57.569Z,10.50
2023-04-14T11:42:00.620Z,10.50
2023-04-14T11:43:03.623Z,10.40
2023-04-14T11:44:06.548Z,10.50
2023-04-14T11:45:09.833Z,10.50
2023-04-14T11:46:13.141Z,10.50
2023-04-14T11:47:21.631Z,10.60
2023-04-14T11:48:24.702Z,10.60
2023-04-14T11:49:33.818Z,10.60
2023-04-14T11:50:38.972Z,10.60
2023-04-14T11:51:41.098Z,10.80
2023-04-14T11:52:46.840Z,10.60
2023-04-14T11:53:49.791Z,10.60
2023-04-14T11:54:51.991Z,10.60
2023-04-14T11:55:54.996Z,10.60
2023-04-14T11:56:58.367Z,10.60
2023-04-14T11:58:02.346Z,10.60
2023-04-14T11:59:06.406Z,10.60
2023-04-14T12:00:11.850Z,10.60
2023-04-14T12:01:16.735Z,10.60
2023-04-14T12:02:21.802Z,10.60
2023-04-14T12:03:29.098Z,10.50
2023-04-14T12:04:31.855Z,10.60
2023-04-14T12:05:35.556Z,10.60
2023-04-14T12:06:39.219Z,10.60
2023-04-14T12:07:43.004Z,10.60
2023-04-14T12:08:52.158Z,10.70
2023-04-14T12:09:54.061Z,10.70
2023-04-14T12:10:57.751Z,10.60
2023-04-14T12:12:07.806Z,10.70
2023-04-14T12:13:12.325Z,10.60
2023-04-14T12:14:14.480Z,10.40
2023-04-14T12:15:18.519Z,9.90
2023-04-14T12:16:20.659Z,9.20
2023-04-14T12:17:25.090Z,9.00
2023-04-14T12:18:29.635Z,8.90
2023-04-14T12:20:43.347Z,8.60
2023-04-14T12:21:52.834Z,8.50
2023-04-14T12:23:02.660Z,8.40
2023-04-14T12:24:05.972Z,8.80
2023-04-14T12:25:12.508Z,9.10
2023-04-14T12:26:14.534Z,9.20
2023-04-14T12:27:21.428Z,9.40
2023-04-14T12:28:25.508Z,9.50
2023-04-14T12:29:30.580Z,9.60
2023-04-14T12:30:33.595Z,9.60
2023-04-14T12:31:36.666Z,9.70
2023-04-14T12:32:40.232Z,9.70
2023-04-14T12:33:45.623Z,9.70
2023-04-14T12:34:57.562Z,9.70
2023-04-14T12:36:03.765Z,9.70
2023-04-14T12:37:10.337Z,9.70
2023-04-14T12:38:13.139Z,9.80
2023-04-14T12:39:16.486Z,9.80
2023-04-14T12:40:37.585Z,9.80
2023-04-14T12:41:41.925Z,9.90
2023-04-14T12:42:48.358Z,9.90
2023-04-14T12:43:51.210Z,9.90
2023-04-14T12:44:58.136Z,9.90
2023-04-14T12:46:03.570Z,10.00
2023-04-14T12:47:05.803Z,10.00
2023-04-14T12:48:08.980Z,10.10
2023-04-14T12:49:29.759Z,10.10
2023-04-14T12:51:41.195Z,10.20
2023-04-14T12:52:44.530Z,10.10
2023-04-14T12:53:49.941Z,10.10
2023-04-14T12:54:52.301Z,10.10
2023-04-14T12:56:06.821Z,10.10
2023-04-14T12:57:09.859Z,10.20
2023-04-14T12:58:14.106Z,10.20
2023-04-14T12:59:16.006Z,10.10
2023-04-14T13:00:19.356Z,10.10
2023-04-14T13:01:22.421Z,10.10
2023-04-14T13:02:25.565Z,10.10
2023-04-14T13:03:39.935Z,10.20
2023-04-14T13:04:43.281Z,10.30
2023-04-14T13:05:46.244Z,10.20
2023-04-14T13:06:48.547Z,10.30
2023-04-14T13:07:51.503Z,10.30
2023-04-14T13:08:54.623Z,10.30
2023-04-14T13:09:58.197Z,10.30
2023-04-14T13:11:00.333Z,10.30
2023-04-14T13:12:03.283Z,10.30
2023-04-14T13:13:06.276Z,10.30
2023-04-14T13:14:09.580Z,10.30
2023-04-14T13:15:30.899Z,10.40
2023-04-14T13:16:36.645Z,10.40
2023-04-14T13:17:38.756Z,10.40
2023-04-14T13:18:41.752Z,10.40
2023-04-14T13:19:43.747Z,10.30
2023-04-14T13:20:53.735Z,10.40
2023-04-14T13:21:55.727Z,10.40
2023-04-14T13:22:58.652Z,10.40
2023-04-14T13:24:01.015Z,10.40
2023-04-14T13:26:06.229Z,10.40
2023-04-14T13:27:09.486Z,10.40
2023-04-14T13:28:11.420Z,10.40
2023-04-14T13:29:15.816Z,10.40
2023-04-14T13:30:18.068Z,10.40
2023-04-14T13:31:21.025Z,10.50
2023-04-14T13:32:24.052Z,10.50
2023-04-14T13:33:26.621Z,10.50
2023-04-14T13:34:29.744Z,10.50
2023-04-14T13:35:31.840Z,10.50
2023-04-14T13:36:34.871Z,10.50
2023-04-14T13:37:38.579Z,10.50
2023-04-14T13:38:40.842Z,10.60
2023-04-14T13:39:43.929Z,10.60
2023-04-14T13:40:47.971Z,10.70
2023-04-14T13:41:52.139Z,10.70
2023-04-14T13:42:54.147Z,10.70
2023-04-14T13:43:57.161Z,10.70
2023-04-14T13:45:00.474Z,10.80
2023-04-14T13:46:03.680Z,10.80
2023-04-14T13:47:06.635Z,10.90
2023-04-14T13:48:08.628Z,10.90
2023-04-14T13:49:11.556Z,10.80
2023-04-14T13:50:13.543Z,10.90
2023-04-14T13:51:16.454Z,10.90
2023-04-14T13:53:21.634Z,11.10
2023-04-14T13:54:25.762Z,11.10
2023-04-14T13:55:27.778Z,11.10
2023-04-14T13:56:30.730Z,11.20
2023-04-14T13:57:33.358Z,11.20
2023-04-14T13:58:37.364Z,11.20
2023-04-14T13:59:40.472Z,11.20
2023-04-14T14:00:43.776Z,11.20
2023-04-14T14:01:46.810Z,11.20
2023-04-14T14:03:52.715Z,11.10
2023-04-14T14:04:54.889Z,11.20
2023-04-14T14:05:57.929Z,11.10
2023-04-14T14:07:01.387Z,11.20
2023-04-14T14:08:03.856Z,11.20
2023-04-14T14:09:07.076Z,11.20
2023-04-14T14:10:10.466Z,11.10
2023-04-14T14:11:14.006Z,11.10
2023-04-14T14:12:17.136Z,11.00
2023-04-14T14:13:20.612Z,11.00
2023-04-14T14:14:22.643Z,11.00
2023-04-14T14:15:25.992Z,11.00
2023-04-14T14:16:36.660Z,10.90